Acapulco Jet — IWUM — position and weather

sailwx.info

Track history (hours):
 
Tides and Currents Weather Stations Pressure Air Temp Water Temp Dewpoint Dewpoint Depression Visibility Wind Speed Wind Dir Waves Ship Positions

Acapulco Jet

Last reported at 2014-Jul-31 10:13 UTC. Time now 2014-Aug-01 03:52 UTC.
Position N 43°41' E 010°23'.

Length 35 m; draft 1.2 m.

Type: High speed craft. MMSI: 247050100.

Date/timePositionNaut miles runAvg speedWind from/ knotsBaromVisibWave heightAir tempDewpointWater temp
2014-Jul-31 10:13N 43°41' E 010°23'2 3.4
2014-Jul-31 09:33N 43°39' E 010°22'4 4.4
2014-Jul-31 08:33N 43°35' E 010°19'7 6.7
2014-Jul-31 07:33N 43°30' E 010°14'1211.5
2014-Jul-31 06:31N 43°18' E 010°16'  
2014-Jul-27 18:32N 42°49' E 010°21'10 4.4
2014-Jul-27 16:17N 42°54' E 010°32'2 1.7
2014-Jul-27 15:16N 42°56' E 010°33'7 0.1
2014-Jul-25 11:28N 42°52' E 010°26'0 0.0
2014-Jul-24 17:27N 42°52' E 010°25'5 1.6
2014-Jul-24 14:04N 42°49' E 010°19'5 0.3
2014-Jul-23 17:32N 42°53' E 010°25'2 1.8
2014-Jul-23 16:29N 42°52' E 010°27'5 1.6
2014-Jul-23 13:33N 42°50' E 010°21'2 0.8
2014-Jul-23 11:22N 42°51' E 010°23'1 0.2
2014-Jul-23 07:11N 42°52' E 010°24'8 4.8
2014-Jul-23 05:28N 42°56' E 010°33'8 0.7
2014-Jul-22 17:33N 42°52' E 010°24'6 4.8
2014-Jul-22 16:21N 42°54' E 010°31'2 2.0
2014-Jul-22 15:16N 42°56' E 010°33'1217.1
2014-Jul-22 14:33N 42°49' E 010°20'2 1.7
2014-Jul-22 13:33N 42°50' E 010°21'  
Track history (hours):
 
Tides and Currents Weather Stations Pressure Air Temp Water Temp Dewpoint Dewpoint Depression Visibility Wind Speed Wind Dir Waves Ship Positions

Acapulco Jet

Last reported at 2014-Jul-31 10:13 UTC. Time now 2014-Aug-01 03:52 UTC.
Position N 43°41' E 010°23'.

Length 35 m; draft 1.2 m.

Type: High speed craft. MMSI: 247050100.

Date/timePositionNaut miles runAvg speedWind from/ knotsBaromVisibWave heightAir tempDewpointWater temp
2014-Jul-31 10:13N 43°41' E 010°23'2 3.4
2014-Jul-31 09:33N 43°39' E 010°22'4 4.4
2014-Jul-31 08:33N 43°35' E 010°19'7 6.7
2014-Jul-31 07:33N 43°30' E 010°14'1211.5
2014-Jul-31 06:31N 43°18' E 010°16'  
2014-Jul-27 18:32N 42°49' E 010°21'10 4.4
2014-Jul-27 16:17N 42°54' E 010°32'2 1.7
2014-Jul-27 15:16N 42°56' E 010°33'7 0.1
2014-Jul-25 11:28N 42°52' E 010°26'0 0.0
2014-Jul-24 17:27N 42°52' E 010°25'5 1.6
2014-Jul-24 14:04N 42°49' E 010°19'5 0.3
2014-Jul-23 17:32N 42°53' E 010°25'2 1.8
2014-Jul-23 16:29N 42°52' E 010°27'5 1.6
2014-Jul-23 13:33N 42°50' E 010°21'2 0.8
2014-Jul-23 11:22N 42°51' E 010°23'1 0.2
2014-Jul-23 07:11N 42°52' E 010°24'8 4.8
2014-Jul-23 05:28N 42°56' E 010°33'8 0.7
2014-Jul-22 17:33N 42°52' E 010°24'6 4.8
2014-Jul-22 16:21N 42°54' E 010°31'2 2.0
2014-Jul-22 15:16N 42°56' E 010°33'1217.1
2014-Jul-22 14:33N 42°49' E 010°20'2 1.7
2014-Jul-22 13:33N 42°50' E 010°21'  

Dump ship's entire track history